sensor_id;sensor_type;location;lat;lon;timestamp;temperature;humidity
42803;DHT22;28447;48.682;9.022;2023-07-02T04:01:47;14.30;99.90
42803;DHT22;28447;48.682;9.022;2023-07-02T04:04:13;14.40;99.90
42803;DHT22;28447;48.682;9.022;2023-07-02T04:06:39;14.30;99.90
42803;DHT22;28447;48.682;9.022;2023-07-02T04:09:04;14.30;99.90
42803;DHT22;28447;48.682;9.022;2023-07-02T04:11:30;14.30;99.90
42803;DHT22;28447;48.682;9.022;2023-07-02T04:13:55;14.20;99.90
42803;DHT22;28447;48.682;9.022;2023-07-02T04:16:21;14.10;99.90
42803;DHT22;28447;48.682;9.022;2023-07-02T04:18:47;14.30;99.90
42803;DHT22;28447;48.682;9.022;2023-07-02T04:21:12;14.40;99.90
42803;DHT22;28447;48.682;9.022;2023-07-02T04:23:38;14.60;99.90
42803;DHT22;28447;48.682;9.022;2023-07-02T04:26:03;14.60;99.90
42803;DHT22;28447;48.682;9.022;2023-07-02T04:28:29;14.60;99.90
42803;DHT22;28447;48.682;9.022;2023-07-02T04:30:54;14.70;99.90
42803;DHT22;28447;48.682;9.022;2023-07-02T04:33:20;14.60;99.90
42803;DHT22;28447;48.682;9.022;2023-07-02T04:35:46;14.60;99.90
42803;DHT22;28447;48.682;9.022;2023-07-02T04:38:11;14.60;99.90
42803;DHT22;28447;48.682;9.022;2023-07-02T04:40:37;14.60;99.90
42803;DHT22;28447;48.682;9.022;2023-07-02T04:43:03;14.80;99.90
42803;DHT22;28447;48.682;9.022;2023-07-02T04:45:30;14.80;99.90
42803;DHT22;28447;48.682;9.022;2023-07-02T04:48:04;14.70;99.90
42803;DHT22;28447;48.682;9.022;2023-07-02T04:50:30;14.70;99.90
42803;DHT22;28447;48.682;9.022;2023-07-02T04:52:56;14.80;99.90
42803;DHT22;28447;48.682;9.022;2023-07-02T04:55:21;14.90;99.90
42803;DHT22;28447;48.682;9.022;2023-07-02T04:57:47;14.90;99.90
42803;DHT22;28447;48.682;9.022;2023-07-02T05:00:13;14.90;99.90
42803;DHT22;28447;48.682;9.022;2023-07-02T05:02:39;14.90;99.90
42803;DHT22;28447;48.682;9.022;2023-07-02T05:05:06;15.00;99.90
42803;DHT22;28447;48.682;9.022;2023-07-02T05:07:32;15.20;99.90
42803;DHT22;28447;48.682;9.022;2023-07-02T05:09:58;15.10;99.90
42803;DHT22;28447;48.682;9.022;2023-07-02T05:12:24;14.90;99.90
42803;DHT22;28447;48.682;9.022;2023-07-02T05:14:49;14.90;99.90
42803;DHT22;28447;48.682;9.022;2023-07-02T05:17:15;14.90;99.90
42803;DHT22;28447;48.682;9.022;2023-07-02T05:19:41;15.20;99.90
42803;DHT22;28447;48.682;9.022;2023-07-02T05:22:08;15.00;99.90
42803;DHT22;28447;48.682;9.022;2023-07-02T05:24:34;14.90;99.90
42803;DHT22;28447;48.682;9.022;2023-07-02T05:26:59;15.00;99.90
42803;DHT22;28447;48.682;9.022;2023-07-02T05:29:25;14.80;99.90
42803;DHT22;28447;48.682;9.022;2023-07-02T05:31:51;14.80;99.90
42803;DHT22;28447;48.682;9.022;2023-07-02T05:34:16;14.90;99.90
42803;DHT22;28447;48.682;9.022;2023-07-02T05:36:42;15.10;99.90
42803;DHT22;28447;48.682;9.022;2023-07-02T05:39:07;15.20;99.90
42803;DHT22;28447;48.682;9.022;2023-07-02T05:41:33;15.20;99.90
42803;DHT22;28447;48.682;9.022;2023-07-02T05:44:00;15.30;99.90
42803;DHT22;28447;48.682;9.022;2023-07-02T05:46:26;15.50;99.90
42803;DHT22;28447;48.682;9.022;2023-07-02T05:48:51;15.50;99.90
42803;DHT22;28447;48.682;9.022;2023-07-02T05:51:20;15.50;99.90
42803;DHT22;28447;48.682;9.022;2023-07-02T05:53:47;15.70;99.90
42803;DHT22;28447;48.682;9.022;2023-07-02T05:56:13;15.50;99.90
42803;DHT22;28447;48.682;9.022;2023-07-02T05:58:39;15.40;99.90
42803;DHT22;28447;48.682;9.022;2023-07-02T06:01:04;15.50;99.90
42803;DHT22;28447;48.682;9.022;2023-07-02T06:03:31;15.60;99.90
42803;DHT22;28447;48.682;9.022;2023-07-02T06:05:57;15.80;99.90
42803;DHT22;28447;48.682;9.022;2023-07-02T06:08:22;15.90;99.90
42803;DHT22;28447;48.682;9.022;2023-07-02T06:10:48;15.90;99.90
42803;DHT22;28447;48.682;9.022;2023-07-02T06:13:14;16.00;99.90
42803;DHT22;28447;48.682;9.022;2023-07-02T06:15:40;16.10;99.90
42803;DHT22;28447;48.682;9.022;2023-07-02T06:18:06;16.30;99.90
42803;DHT22;28447;48.682;9.022;2023-07-02T06:20:32;16.40;99.90
42803;DHT22;28447;48.682;9.022;2023-07-02T06:22:57;16.40;99.90
42803;DHT22;28447;48.682;9.022;2023-07-02T06:25:23;16.30;99.90
42803;DHT22;28447;48.682;9.022;2023-07-02T06:27:49;16.40;99.90
42803;DHT22;28447;48.682;9.022;2023-07-02T06:30:14;16.30;99.90
42803;DHT22;28447;48.682;9.022;2023-07-02T06:32:40;16.40;99.90
42803;DHT22;28447;48.682;9.022;2023-07-02T06:35:06;16.50;99.90
42803;DHT22;28447;48.682;9.022;2023-07-02T06:37:32;16.70;99.90
42803;DHT22;28447;48.682;9.022;2023-07-02T06:39:58;16.60;99.90
42803;DHT22;28447;48.682;9.022;2023-07-02T06:42:24;16.60;99.90
42803;DHT22;28447;48.682;9.022;2023-07-02T06:44:50;16.60;99.90
42803;DHT22;28447;48.682;9.022;2023-07-02T06:47:16;16.50;99.90
42803;DHT22;28447;48.682;9.022;2023-07-02T06:49:42;16.40;99.90
42803;DHT22;28447;48.682;9.022;2023-07-02T06:52:08;16.40;99.90
42803;DHT22;28447;48.682;9.022;2023-07-02T06:54:34;16.70;99.90
42803;DHT22;28447;48.682;9.022;2023-07-02T06:57:00;16.80;99.90
42803;DHT22;28447;48.682;9.022;2023-07-02T06:59:25;16.80;99.90
42803;DHT22;28447;48.682;9.022;2023-07-02T07:01:51;16.90;99.90
42803;DHT22;28447;48.682;9.022;2023-07-02T07:04:17;17.20;99.90
42803;DHT22;28447;48.682;9.022;2023-07-02T07:06:43;17.30;99.90
42803;DHT22;28447;48.682;9.022;2023-07-02T07:09:09;17.40;99.90
42803;DHT22;28447;48.682;9.022;2023-07-02T07:11:35;17.20;99.90
42803;DHT22;28447;48.682;9.022;2023-07-02T07:14:01;17.60;99.90
42803;DHT22;28447;48.682;9.022;2023-07-02T07:16:26;17.60;99.90
42803;DHT22;28447;48.682;9.022;2023-07-02T07:18:52;17.70;99.90
42803;DHT22;28447;48.682;9.022;2023-07-02T07:21:18;18.00;99.90
42803;DHT22;28447;48.682;9.022;2023-07-02T07:23:43;18.10;99.90
42803;DHT22;28447;48.682;9.022;2023-07-02T07:26:09;18.30;99.90
42803;DHT22;28447;48.682;9.022;2023-07-02T07:28:35;18.40;99.90
42803;DHT22;28447;48.682;9.022;2023-07-02T07:31:01;18.50;99.90
42803;DHT22;28447;48.682;9.022;2023-07-02T07:33:26;17.90;99.90
42803;DHT22;28447;48.682;9.022;2023-07-02T07:35:52;17.80;99.90
42803;DHT22;28447;48.682;9.022;2023-07-02T07:38:18;18.30;99.90
42803;DHT22;28447;48.682;9.022;2023-07-02T07:40:43;18.20;99.90
42803;DHT22;28447;48.682;9.022;2023-07-02T07:43:09;18.60;99.90
42803;DHT22;28447;48.682;9.022;2023-07-02T07:45:35;18.50;99.90
42803;DHT22;28447;48.682;9.022;2023-07-02T07:48:01;18.10;99.90
42803;DHT22;28447;48.682;9.022;2023-07-02T07:50:27;18.30;99.90
42803;DHT22;28447;48.682;9.022;2023-07-02T07:52:53;18.50;99.90
42803;DHT22;28447;48.682;9.022;2023-07-02T07:55:18;18.60;99.90
42803;DHT22;28447;48.682;9.022;2023-07-02T07:57:44;18.60;99.90
42803;DHT22;28447;48.682;9.022;2023-07-02T08:00:10;19.10;99.90
42803;DHT22;28447;48.682;9.022;2023-07-02T08:02:36;18.70;99.90
42803;DHT22;28447;48.682;9.022;2023-07-02T08:05:02;19.10;99.90
42803;DHT22;28447;48.682;9.022;2023-07-02T08:07:30;19.30;99.90
42803;DHT22;28447;48.682;9.022;2023-07-02T08:09:56;19.20;99.90
42803;DHT22;28447;48.682;9.022;2023-07-02T08:12:21;19.10;99.90
42803;DHT22;28447;48.682;9.022;2023-07-02T08:14:47;19.30;99.90
42803;DHT22;28447;48.682;9.022;2023-07-02T08:17:13;19.20;99.90
42803;DHT22;28447;48.682;9.022;2023-07-02T08:19:38;19.20;99.90
42803;DHT22;28447;48.682;9.022;2023-07-02T08:22:04;19.10;99.90
42803;DHT22;28447;48.682;9.022;2023-07-02T08:24:30;19.20;99.90
42803;DHT22;28447;48.682;9.022;2023-07-02T08:26:57;19.60;99.90
42803;DHT22;28447;48.682;9.022;2023-07-02T08:29:23;19.50;99.90
42803;DHT22;28447;48.682;9.022;2023-07-02T08:31:48;19.10;99.90
42803;DHT22;28447;48.682;9.022;2023-07-02T08:34:14;18.90;99.90
42803;DHT22;28447;48.682;9.022;2023-07-02T08:36:40;19.30;99.90
42803;DHT22;28447;48.682;9.022;2023-07-02T08:39:05;19.50;99.90
42803;DHT22;28447;48.682;9.022;2023-07-02T08:41:42;19.50;99.90
42803;DHT22;28447;48.682;9.022;2023-07-02T08:44:09;19.50;99.90
42803;DHT22;28447;48.682;9.022;2023-07-02T08:46:35;19.60;99.90
42803;DHT22;28447;48.682;9.022;2023-07-02T08:49:00;19.80;99.90
42803;DHT22;28447;48.682;9.022;2023-07-02T08:51:26;19.80;99.90
42803;DHT22;28447;48.682;9.022;2023-07-02T08:53:51;19.90;99.90
42803;DHT22;28447;48.682;9.022;2023-07-02T08:56:17;20.20;99.90
42803;DHT22;28447;48.682;9.022;2023-07-02T08:58:43;20.40;99.90
42803;DHT22;28447;48.682;9.022;2023-07-02T09:01:12;20.90;99.90
42803;DHT22;28447;48.682;9.022;2023-07-02T09:03:39;20.80;99.90
42803;DHT22;28447;48.682;9.022;2023-07-02T09:06:06;21.70;99.90
42803;DHT22;28447;48.682;9.022;2023-07-02T09:08:32;21.50;99.90
42803;DHT22;28447;48.682;9.022;2023-07-02T09:11:08;20.70;99.90
42803;DHT22;28447;48.682;9.022;2023-07-02T09:16:30;20.70;99.90
42803;DHT22;28447;48.682;9.022;2023-07-02T09:21:22;20.90;99.90
42803;DHT22;28447;48.682;9.022;2023-07-02T09:23:48;20.50;99.90
42803;DHT22;28447;48.682;9.022;2023-07-02T09:26:23;21.10;99.90
42803;DHT22;28447;48.682;9.022;2023-07-02T09:28:48;21.50;99.90
42803;DHT22;28447;48.682;9.022;2023-07-02T09:31:14;21.30;99.90
42803;DHT22;28447;48.682;9.022;2023-07-02T09:33:40;21.70;99.90
42803;DHT22;28447;48.682;9.022;2023-07-02T09:36:06;21.70;99.90
42803;DHT22;28447;48.682;9.022;2023-07-02T09:38:32;21.70;99.90
42803;DHT22;28447;48.682;9.022;2023-07-02T09:40:58;21.30;99.90
42803;DHT22;28447;48.682;9.022;2023-07-02T09:43:25;21.00;99.90
42803;DHT22;28447;48.682;9.022;2023-07-02T09:45:54;20.70;99.90
42803;DHT22;28447;48.682;9.022;2023-07-02T09:48:24;21.50;99.90
42803;DHT22;28447;48.682;9.022;2023-07-02T09:50:53;22.20;99.90
42803;DHT22;28447;48.682;9.022;2023-07-02T09:53:19;21.70;99.90
42803;DHT22;28447;48.682;9.022;2023-07-02T09:55:45;22.10;99.90
42803;DHT22;28447;48.682;9.022;2023-07-02T09:58:11;21.20;99.90
42803;DHT22;28447;48.682;9.022;2023-07-02T10:00:42;21.30;99.90
42803;DHT22;28447;48.682;9.022;2023-07-02T10:03:07;21.20;99.90
42803;DHT22;28447;48.682;9.022;2023-07-02T10:05:33;21.20;99.90
42803;DHT22;28447;48.682;9.022;2023-07-02T10:08:13;21.60;99.90
42803;DHT22;28447;48.682;9.022;2023-07-02T10:10:39;22.10;99.90
42803;DHT22;28447;48.682;9.022;2023-07-02T10:13:05;22.30;99.90
42803;DHT22;28447;48.682;9.022;2023-07-02T10:15:31;22.20;99.90
42803;DHT22;28447;48.682;9.022;2023-07-02T10:17:58;22.60;99.90
42803;DHT22;28447;48.682;9.022;2023-07-02T10:20:54;23.50;99.90
42803;DHT22;28447;48.682;9.022;2023-07-02T10:23:19;22.00;99.90
42803;DHT22;28447;48.682;9.022;2023-07-02T10:25:45;22.00;99.90
42803;DHT22;28447;48.682;9.022;2023-07-02T10:28:15;22.40;99.90
42803;DHT22;28447;48.682;9.022;2023-07-02T10:30:41;23.50;99.90
42803;DHT22;28447;48.682;9.022;2023-07-02T10:33:14;23.10;99.90
42803;DHT22;28447;48.682;9.022;2023-07-02T10:35:42;22.50;99.90
42803;DHT22;28447;48.682;9.022;2023-07-02T10:38:23;23.10;99.90
42803;DHT22;28447;48.682;9.022;2023-07-02T10:41:00;23.50;99.90
42803;DHT22;28447;48.682;9.022;2023-07-02T10:43:30;23.00;99.90
42803;DHT22;28447;48.682;9.022;2023-07-02T10:45:56;23.30;99.80
42803;DHT22;28447;48.682;9.022;2023-07-02T10:48:22;23.30;99.60
42803;DHT22;28447;48.682;9.022;2023-07-02T10:50:48;23.10;98.50
42803;DHT22;28447;48.682;9.022;2023-07-02T10:53:15;23.80;96.10
42803;DHT22;28447;48.682;9.022;2023-07-02T10:55:42;23.70;97.30
42803;DHT22;28447;48.682;9.022;2023-07-02T10:58:08;24.10;96.40
42803;DHT22;28447;48.682;9.022;2023-07-02T11:00:52;23.70;96.50
42803;DHT22;28447;48.682;9.022;2023-07-02T11:03:24;23.00;98.20
42803;DHT22;28447;48.682;9.022;2023-07-02T11:05:50;24.30;97.90
42803;DHT22;28447;48.682;9.022;2023-07-02T11:10:43;25.00;90.90
42803;DHT22;28447;48.682;9.022;2023-07-02T11:13:20;24.60;90.70
42803;DHT22;28447;48.682;9.022;2023-07-02T11:15:46;23.90;88.40
42803;DHT22;28447;48.682;9.022;2023-07-02T11:18:13;23.50;90.00
42803;DHT22;28447;48.682;9.022;2023-07-02T11:20:46;23.50;92.70
42803;DHT22;28447;48.682;9.022;2023-07-02T11:23:23;24.20;90.50
42803;DHT22;28447;48.682;9.022;2023-07-02T11:26:01;24.70;86.00
42803;DHT22;28447;48.682;9.022;2023-07-02T11:28:30;23.80;89.50
42803;DHT22;28447;48.682;9.022;2023-07-02T11:30:57;25.10;87.50
42803;DHT22;28447;48.682;9.022;2023-07-02T11:33:37;25.10;87.50
42803;DHT22;28447;48.682;9.022;2023-07-02T11:36:04;25.40;86.50
42803;DHT22;28447;48.682;9.022;2023-07-02T11:38:30;25.20;85.60
42803;DHT22;28447;48.682;9.022;2023-07-02T11:40:55;26.10;87.60
42803;DHT22;28447;48.682;9.022;2023-07-02T11:43:21;24.80;84.90
42803;DHT22;28447;48.682;9.022;2023-07-02T11:45:46;24.90;84.80
42803;DHT22;28447;48.682;9.022;2023-07-02T11:48:12;25.60;83.50
42803;DHT22;28447;48.682;9.022;2023-07-02T11:50:38;25.10;80.50
42803;DHT22;28447;48.682;9.022;2023-07-02T11:53:04;25.50;81.10
42803;DHT22;28447;48.682;9.022;2023-07-02T11:55:29;25.60;83.60
42803;DHT22;28447;48.682;9.022;2023-07-02T11:57:55;26.00;80.30
42803;DHT22;28447;48.682;9.022;2023-07-02T12:00:21;27.00;83.30
42803;DHT22;28447;48.682;9.022;2023-07-02T12:02:48;27.00;78.40
42803;DHT22;28447;48.682;9.022;2023-07-02T12:05:14;27.90;76.80
42803;DHT22;28447;48.682;9.022;2023-07-02T12:07:39;26.10;77.40
42803;DHT22;28447;48.682;9.022;2023-07-02T12:10:09;25.80;78.00
42803;DHT22;28447;48.682;9.022;2023-07-02T16:06:40;25.60;76.60
42803;DHT22;28447;48.682;9.022;2023-07-02T16:09:06;24.00;74.30
42803;DHT22;28447;48.682;9.022;2023-07-02T16:11:34;23.90;73.40
42803;DHT22;28447;48.682;9.022;2023-07-02T16:14:06;23.80;75.30
42803;DHT22;28447;48.682;9.022;2023-07-02T16:16:33;23.60;75.20
42803;DHT22;28447;48.682;9.022;2023-07-02T16:19:00;23.60;75.00
42803;DHT22;28447;48.682;9.022;2023-07-02T16:21:26;23.20;75.50
42803;DHT22;28447;48.682;9.022;2023-07-02T16:23:51;23.00;76.20
42803;DHT22;28447;48.682;9.022;2023-07-02T16:26:17;23.40;76.70
42803;DHT22;28447;48.682;9.022;2023-07-02T16:28:43;23.60;76.00
42803;DHT22;28447;48.682;9.022;2023-07-02T16:31:09;23.90;74.60
42803;DHT22;28447;48.682;9.022;2023-07-02T16:33:35;23.90;75.10
42803;DHT22;28447;48.682;9.022;2023-07-02T16:36:05;23.30;75.60
42803;DHT22;28447;48.682;9.022;2023-07-02T16:38:31;23.00;77.10
42803;DHT22;28447;48.682;9.022;2023-07-02T16:40:58;23.10;76.00
42803;DHT22;28447;48.682;9.022;2023-07-02T16:43:23;23.10;76.20
42803;DHT22;28447;48.682;9.022;2023-07-02T16:45:53;22.90;75.60
42803;DHT22;28447;48.682;9.022;2023-07-02T16:48:19;23.20;77.10
42803;DHT22;28447;48.682;9.022;2023-07-02T16:50:45;23.50;75.60
42803;DHT22;28447;48.682;9.022;2023-07-02T16:53:11;24.00;76.10
42803;DHT22;28447;48.682;9.022;2023-07-02T16:55:37;24.10;76.40
42803;DHT22;28447;48.682;9.022;2023-07-02T16:58:04;23.90;75.90
42803;DHT22;28447;48.682;9.022;2023-07-02T17:00:30;24.00;75.10
42803;DHT22;28447;48.682;9.022;2023-07-02T17:02:55;24.00;76.50
42803;DHT22;28447;48.682;9.022;2023-07-02T17:05:21;23.70;75.90
42803;DHT22;28447;48.682;9.022;2023-07-02T17:07:46;23.20;76.40
42803;DHT22;28447;48.682;9.022;2023-07-02T17:10:14;23.40;76.00
42803;DHT22;28447;48.682;9.022;2023-07-02T17:12:39;22.90;77.10
42803;DHT22;28447;48.682;9.022;2023-07-02T17:15:05;22.80;78.30
42803;DHT22;28447;48.682;9.022;2023-07-02T17:17:31;22.90;77.50
42803;DHT22;28447;48.682;9.022;2023-07-02T17:19:58;22.80;77.90
42803;DHT22;28447;48.682;9.022;2023-07-02T17:22:26;22.70;78.00
42803;DHT22;28447;48.682;9.022;2023-07-02T17:24:54;22.80;78.70
42803;DHT22;28447;48.682;9.022;2023-07-02T17:27:22;22.90;78.10
42803;DHT22;28447;48.682;9.022;2023-07-02T17:29:54;22.80;78.40
42803;DHT22;28447;48.682;9.022;2023-07-02T17:32:21;22.70;79.10
42803;DHT22;28447;48.682;9.022;2023-07-02T17:34:47;22.60;79.50
42803;DHT22;28447;48.682;9.022;2023-07-02T17:37:12;22.40;79.20
42803;DHT22;28447;48.682;9.022;2023-07-02T17:39:40;22.50;80.00
42803;DHT22;28447;48.682;9.022;2023-07-02T17:42:06;22.40;80.10
42803;DHT22;28447;48.682;9.022;2023-07-02T17:44:36;22.30;79.80
42803;DHT22;28447;48.682;9.022;2023-07-02T17:47:05;22.20;79.40
42803;DHT22;28447;48.682;9.022;2023-07-02T17:49:34;22.20;79.80
42803;DHT22;28447;48.682;9.022;2023-07-02T17:52:01;22.10;80.30
42803;DHT22;28447;48.682;9.022;2023-07-02T17:54:33;22.10;80.40
42803;DHT22;28447;48.682;9.022;2023-07-02T17:57:00;22.00;80.60
42803;DHT22;28447;48.682;9.022;2023-07-02T17:59:27;22.10;81.50
42803;DHT22;28447;48.682;9.022;2023-07-02T18:01:56;22.00;81.40
42803;DHT22;28447;48.682;9.022;2023-07-02T18:04:22;21.90;81.60
42803;DHT22;28447;48.682;9.022;2023-07-02T18:06:49;22.00;82.00
42803;DHT22;28447;48.682;9.022;2023-07-02T18:09:22;22.10;82.60
42803;DHT22;28447;48.682;9.022;2023-07-02T18:11:48;21.90;81.80
42803;DHT22;28447;48.682;9.022;2023-07-02T18:14:17;21.80;82.00
42803;DHT22;28447;48.682;9.022;2023-07-02T18:16:42;21.80;82.00
42803;DHT22;28447;48.682;9.022;2023-07-02T18:19:08;21.70;82.40
42803;DHT22;28447;48.682;9.022;2023-07-02T18:21:34;21.80;83.60
42803;DHT22;28447;48.682;9.022;2023-07-02T18:23:59;21.60;82.50
42803;DHT22;28447;48.682;9.022;2023-07-02T18:26:27;21.70;83.10
42803;DHT22;28447;48.682;9.022;2023-07-02T18:28:52;21.80;83.10
42803;DHT22;28447;48.682;9.022;2023-07-02T18:31:19;21.70;83.20
42803;DHT22;28447;48.682;9.022;2023-07-02T18:33:45;21.70;82.80
42803;DHT22;28447;48.682;9.022;2023-07-02T18:36:12;21.60;83.30
42803;DHT22;28447;48.682;9.022;2023-07-02T18:38:40;21.60;83.60
42803;DHT22;28447;48.682;9.022;2023-07-02T18:41:07;21.50;83.60
42803;DHT22;28447;48.682;9.022;2023-07-02T18:43:36;21.50;84.30
42803;DHT22;28447;48.682;9.022;2023-07-02T18:46:03;21.50;84.20
42803;DHT22;28447;48.682;9.022;2023-07-02T18:48:29;21.50;84.80
42803;DHT22;28447;48.682;9.022;2023-07-02T18:50:55;21.40;84.40
42803;DHT22;28447;48.682;9.022;2023-07-02T18:53:22;21.40;85.10
42803;DHT22;28447;48.682;9.022;2023-07-02T18:55:56;21.30;84.90
42803;DHT22;28447;48.682;9.022;2023-07-02T18:58:22;21.10;85.20
42803;DHT22;28447;48.682;9.022;2023-07-02T19:00:48;21.10;85.50
42803;DHT22;28447;48.682;9.022;2023-07-02T19:03:13;21.10;86.10
42803;DHT22;28447;48.682;9.022;2023-07-02T19:05:39;21.10;85.70
42803;DHT22;28447;48.682;9.022;2023-07-02T19:08:05;21.00;86.10
42803;DHT22;28447;48.682;9.022;2023-07-02T19:10:30;20.80;86.60
42803;DHT22;28447;48.682;9.022;2023-07-02T19:12:56;20.70;87.10
42803;DHT22;28447;48.682;9.022;2023-07-02T19:15:24;20.70;86.40
42803;DHT22;28447;48.682;9.022;2023-07-02T19:17:50;20.70;86.90
42803;DHT22;28447;48.682;9.022;2023-07-02T19:20:16;20.50;88.00
42803;DHT22;28447;48.682;9.022;2023-07-02T19:22:44;20.40;88.30
42803;DHT22;28447;48.682;9.022;2023-07-02T19:25:09;20.30;88.40
42803;DHT22;28447;48.682;9.022;2023-07-02T19:27:36;20.20;89.30
42803;DHT22;28447;48.682;9.022;2023-07-02T19:30:04;20.20;89.10
42803;DHT22;28447;48.682;9.022;2023-07-02T19:32:29;20.10;89.30
42803;DHT22;28447;48.682;9.022;2023-07-02T19:35:02;20.00;89.30
42803;DHT22;28447;48.682;9.022;2023-07-02T19:37:29;20.00;89.90
42803;DHT22;28447;48.682;9.022;2023-07-02T19:39:55;19.90;89.70
42803;DHT22;28447;48.682;9.022;2023-07-02T19:42:22;19.90;94.50
42803;DHT22;28447;48.682;9.022;2023-07-02T19:44:53;19.80;94.60
42803;DHT22;28447;48.682;9.022;2023-07-02T19:47:19;19.80;94.70
42803;DHT22;28447;48.682;9.022;2023-07-02T19:49:44;19.70;94.40
42803;DHT22;28447;48.682;9.022;2023-07-02T19:52:14;19.70;94.30
42803;DHT22;28447;48.682;9.022;2023-07-02T19:54:40;19.70;94.90
42803;DHT22;28447;48.682;9.022;2023-07-02T19:57:10;19.70;94.30
42803;DHT22;28447;48.682;9.022;2023-07-02T19:59:40;19.60;94.40
42803;DHT22;28447;48.682;9.022;2023-07-02T20:02:06;19.60;94.80
42803;DHT22;28447;48.682;9.022;2023-07-02T20:04:32;19.60;94.40
42803;DHT22;28447;48.682;9.022;2023-07-02T20:06:57;19.50;94.70
42803;DHT22;28447;48.682;9.022;2023-07-02T20:09:23;19.50;94.70
42803;DHT22;28447;48.682;9.022;2023-07-02T20:11:49;19.40;94.80
42803;DHT22;28447;48.682;9.022;2023-07-02T20:14:15;19.30;95.00
42803;DHT22;28447;48.682;9.022;2023-07-02T20:16:41;19.20;95.60
42803;DHT22;28447;48.682;9.022;2023-07-02T20:19:06;19.10;95.40
42803;DHT22;28447;48.682;9.022;2023-07-02T20:21:32;19.00;95.50
42803;DHT22;28447;48.682;9.022;2023-07-02T20:23:58;19.00;95.40
42803;DHT22;28447;48.682;9.022;2023-07-02T20:26:24;19.00;95.70
42803;DHT22;28447;48.682;9.022;2023-07-02T20:28:50;18.90;94.50
42803;DHT22;28447;48.682;9.022;2023-07-02T20:31:17;18.90;94.10
42803;DHT22;28447;48.682;9.022;2023-07-02T20:33:43;18.80;94.10
42803;DHT22;28447;48.682;9.022;2023-07-02T20:36:12;18.80;93.40
42803;DHT22;28447;48.682;9.022;2023-07-02T20:38:38;18.70;93.20
42803;DHT22;28447;48.682;9.022;2023-07-02T20:41:07;18.70;93.50
42803;DHT22;28447;48.682;9.022;2023-07-02T20:43:34;18.70;93.30
42803;DHT22;28447;48.682;9.022;2023-07-02T20:46:07;18.60;93.30
42803;DHT22;28447;48.682;9.022;2023-07-02T20:48:35;18.60;92.60
42803;DHT22;28447;48.682;9.022;2023-07-02T20:51:04;18.50;93.00
42803;DHT22;28447;48.682;9.022;2023-07-02T20:53:29;18.50;93.70
42803;DHT22;28447;48.682;9.022;2023-07-02T20:55:56;18.50;93.10
42803;DHT22;28447;48.682;9.022;2023-07-02T20:58:22;18.50;93.30
42803;DHT22;28447;48.682;9.022;2023-07-02T21:00:48;18.50;93.90
42803;DHT22;28447;48.682;9.022;2023-07-02T21:03:14;18.30;93.60
42803;DHT22;28447;48.682;9.022;2023-07-02T21:05:39;18.10;94.00
42803;DHT22;28447;48.682;9.022;2023-07-02T21:08:05;18.10;93.90
42803;DHT22;28447;48.682;9.022;2023-07-02T21:10:31;18.20;94.20
42803;DHT22;28447;48.682;9.022;2023-07-02T21:12:56;18.10;94.20
42803;DHT22;28447;48.682;9.022;2023-07-02T21:15:22;18.10;95.10
42803;DHT22;28447;48.682;9.022;2023-07-02T21:17:48;18.00;94.80
42803;DHT22;28447;48.682;9.022;2023-07-02T21:20:14;17.90;94.80
42803;DHT22;28447;48.682;9.022;2023-07-02T21:22:40;17.80;95.60
42803;DHT22;28447;48.682;9.022;2023-07-02T21:25:05;17.80;95.60
42803;DHT22;28447;48.682;9.022;2023-07-02T21:27:31;17.70;95.60
42803;DHT22;28447;48.682;9.022;2023-07-02T21:29:59;17.70;95.60
42803;DHT22;28447;48.682;9.022;2023-07-02T21:32:25;17.60;96.40
42803;DHT22;28447;48.682;9.022;2023-07-02T21:34:53;17.50;95.70
42803;DHT22;28447;48.682;9.022;2023-07-02T21:37:20;17.40;96.40
42803;DHT22;28447;48.682;9.022;2023-07-02T21:39:46;17.30;96.20
42803;DHT22;28447;48.682;9.022;2023-07-02T21:42:12;17.20;96.20
42803;DHT22;28447;48.682;9.022;2023-07-02T21:44:37;17.10;96.70
42803;DHT22;28447;48.682;9.022;2023-07-02T21:47:03;17.10;96.90
42803;DHT22;28447;48.682;9.022;2023-07-02T21:49:29;17.00;97.10
42803;DHT22;28447;48.682;9.022;2023-07-02T21:51:56;16.90;97.50
42803;DHT22;28447;48.682;9.022;2023-07-02T21:54:22;16.90;98.10
42803;DHT22;28447;48.682;9.022;2023-07-02T21:56:47;16.90;98.40
42803;DHT22;28447;48.682;9.022;2023-07-02T21:59:13;16.80;97.80
